Vigo, Spain

4:51 PM CET on March 01, 2015 (GMT +0100)
Porriño Centro | Change Station
CLOSE
Current Station
Personal Weather Station
Location: O Porriño, GALICIA
Elevation: 98 ft
Nearby Weather Stations

Elev 98 ft 42.16 °N, 8.62 °W | Updated 5 seconds ago

Rain
Rain Fog
55.0 °F
Feels Like 55.0 °F
N
7.6
Wind Variable Wind from ESE
Gusts 17.4 mph

Today
High -- | Low -- °F
--% Chance of Precip.
Yesterday
High -- | Low -- °F
Precip. -- in
8:10 AM 7:23 PM
Waxing Gibbous, 85% visible
Pressure 30.27 in
Visibility 0.2 miles
Clouds
Dew Point 54 °F
Humidity 97%
Rainfall 0.06 in
Snow Depth Not available.
UV Not available.
Pollen Not available.
Air Quality Not available.
Flu Activity Not available.
METAR LEVX 011530Z 20007KT 150V230 0250 R20/1300N R02/0300N RA FG VV001 12/12 Q1025 TEMPO 0800 BCFG

More Conditions Fewer Conditions

Pressure 30.27 in
Visibility 0.2 miles
Clouds
Dew Point 54 °F
Humidity 97%
Rainfall 0.06 in
Snow Depth Not available.
UV Not available.
Pollen Not available.
Air Quality Not available.
Flu Activity Not available.
METAR LEVX 011530Z 20007KT 150V230 0250 R20/1300N R02/0300N RA FG VV001 12/12 Q1025 TEMPO 0800 BCFG

More Conditions Fewer Conditions

10-Day Weather Forecast

Almanac

Astronomy

Mar. 01, 2015 Rise Set
Actual Time
Civil Twilight
Nautical Twilight
Astronomical Twilight
Moon
Length of Visible Light
Length of Day
Tomorrow will be .
, % of the Moon is Illuminated

Today's Extremes

Country Highs Country Lows

Community

WunderPhotos

Upload Photos

1,801,435 photos uploaded!

WunderBlogs® & News

Nearby

Air Quality

  Air Quality AQ Index Pollutant
Not available.

Snow Depth

Station Depth Elevation

Earthquake Activity

City Distance Mag. Time & Date
Minimum magnitude displayed is 2.5.

Coastal Water Temperatures

Place Temperature

Nearby Weather Stations